Fremont, Ohio
Current Conditions -  °F | °C
As of 9:53 PM on Sunday 23 Nov 2014 (Local Time) from KPCW Reporting Station
Overcast Overcast  
Wind Chill: 54°   Ceiling: 3200
Heat Index: 54°   Visibility: 10mi
Dew Point: 50°   Wind: 17mph
Humidity: 88%   Direction: 150°SSE
Pressure: 29.37"   Gusts: NA
Location:  41.35°N, 83.11°W
Report Text: KPCW 240253Z AUTO 15015KT 10SM OVC032 12/10 A2937 RMK AO2 58059 60011
Loading
Personal Weather Stations






























Interactive Weather Map New forecast layout! Learn more

10-Day Weather Forecast

Advertisements
Track Severe Weather on mobile